Time;durP1;ratioP1;P1;durP2;ratioP2;P2;SDS_P1;SDS_P2;PMS_P1;PMS_P2;Temp;Humidity;BMP_temperature;BMP_pressure;BME280_temperature;BME280_humidity;BME280_pressure;Samples;Min_cycle;Max_cycle;Signal;HPM_P1;HPM_P2
2023/05/11 00:00:24;;;;;;;;;;;;;;;11.48;100.00;101469.44;5022644;28;20446;-47
2023/05/11 00:02:49;;;;;;;;;;;;;;;11.46;100.00;101458.19;5022137;28;19933;-46
2023/05/11 00:05:15;;;;;;;;;;;;;;;11.48;100.00;101467.72;5020635;28;19928;-48
2023/05/11 00:07:40;;;;;;;;;;;;;;;11.47;100.00;101467.69;5019528;28;19932;-45
2023/05/11 00:10:05;;;;;;;;;;;;;;;11.44;100.00;101462.41;5030701;28;19939;-47
2023/05/11 00:12:31;;;;;;;;;;;;;;;11.44;100.00;101459.84;5022465;28;19921;-47
2023/05/11 00:14:56;;;;;;;;;;;;;;;11.43;100.00;101460.66;5027656;28;19954;-49
2023/05/11 00:17:21;;;;;;;;;;;;;;;11.42;100.00;101446.91;5025799;28;20356;-47
2023/05/11 00:19:47;;;;;;;;;;;;;;;11.41;100.00;101452.91;5028102;28;19921;-46
2023/05/11 00:22:12;;;;;;;;;;;;;;;11.38;100.00;101446.75;5022115;28;19921;-49
2023/05/11 00:24:38;;;;;;;;;;;;;;;11.34;100.00;101448.34;5026438;28;20008;-45
2023/05/11 00:27:03;;;;;;;;;;;;;;;11.30;100.00;101453.34;5027257;28;19921;-48
2023/05/11 00:29:28;;;;;;;;;;;;;;;11.25;100.00;101451.50;5023061;28;19933;-48
2023/05/11 00:31:53;;;;;;;;;;;;;;;11.20;100.00;101450.44;5023526;28;21712;-47
2023/05/11 00:34:19;;;;;;;;;;;;;;;11.17;100.00;101454.63;5025616;28;19957;-47
2023/05/11 00:36:44;;;;;;;;;;;;;;;11.11;100.00;101452.72;5020640;28;19922;-46
2023/05/11 00:39:10;;;;;;;;;;;;;;;11.06;100.00;101451.66;5027671;28;19966;-49
2023/05/11 00:41:36;;;;;;;;;;;;;;;11.00;100.00;101454.91;5023619;28;19925;-48
2023/05/11 00:44:01;;;;;;;;;;;;;;;10.97;100.00;101459.06;5040701;27;19917;-49
2023/05/11 00:46:27;;;;;;;;;;;;;;;10.98;100.00;101456.56;5026366;28;19976;-45
2023/05/11 00:48:53;;;;;;;;;;;;;;;11.00;100.00;101457.47;5026147;28;19921;-48
2023/05/11 00:51:19;;;;;;;;;;;;;;;11.04;100.00;101457.56;5026740;28;19936;-47
2023/05/11 00:53:44;;;;;;;;;;;;;;;11.09;100.00;101461.19;5022461;28;19921;-47
2023/05/11 00:56:10;;;;;;;;;;;;;;;11.14;100.00;101467.38;5024344;28;19970;-47
2023/05/11 00:58:35;;;;;;;;;;;;;;;11.17;100.00;101465.81;5022560;28;19936;-48
2023/05/11 01:01:01;;;;;;;;;;;;;;;11.20;100.00;101462.44;5024314;28;19966;-48
2023/05/11 01:03:26;;;;;;;;;;;;;;;11.21;100.00;101470.22;5025244;28;19933;-46
2023/05/11 01:05:56;;;;;;;;;;;;;;;11.23;100.00;101460.00;5024669;28;19921;-49
2023/05/11 01:08:31;;;;;;;;;;;;;;;11.24;100.00;101469.47;5022172;28;19921;-49
2023/05/11 01:11:05;;;;;;;;;;;;;;;11.25;100.00;101466.94;5026402;28;20371;-47
2023/05/11 01:13:33;;;;;;;;;;;;;;;11.26;100.00;101463.53;5018471;28;20360;-47
2023/05/11 01:16:01;;;;;;;;;;;;;;;11.28;100.00;101463.56;5024168;28;19960;-47
2023/05/11 01:18:29;;;;;;;;;;;;;;;11.28;100.00;101464.47;5022302;27;19918;-49
2023/05/11 01:20:56;;;;;;;;;;;;;;;11.30;100.00;101463.66;5024073;28;19930;-48
2023/05/11 01:23:28;;;;;;;;;;;;;;;11.32;100.00;101462.00;5021031;28;19917;-46
2023/05/11 01:25:56;;;;;;;;;;;;;;;11.31;100.00;101465.41;5022510;28;20402;-47
2023/05/11 01:28:33;;;;;;;;;;;;;;;11.32;100.00;101464.56;5022440;28;20005;-48
2023/05/11 01:31:05;;;;;;;;;;;;;;;11.32;100.00;101472.28;5022289;28;20009;-48
2023/05/11 01:33:33;;;;;;;;;;;;;;;11.32;100.00;101472.28;5020581;28;19917;-48
2023/05/11 01:36:07;;;;;;;;;;;;;;;11.30;100.00;101473.94;5026185;27;19928;-49
2023/05/11 01:38:34;;;;;;;;;;;;;;;11.33;100.00;101476.63;5020366;28;19921;-47
2023/05/11 01:41:02;;;;;;;;;;;;;;;11.34;100.00;101475.78;5023490;28;20827;-46
2023/05/11 01:43:29;;;;;;;;;;;;;;;11.36;100.00;101474.16;5023032;28;19925;-50
2023/05/11 01:45:57;;;;;;;;;;;;;;;11.34;100.00;101468.06;5023961;28;19921;-49
2023/05/11 01:48:24;;;;;;;;;;;;;;;11.35;100.00;101475.00;5021480;28;20371;-46
2023/05/11 01:50:50;;;;;;;;;;;;;;;11.36;100.00;101472.47;5030066;27;19917;-46
2023/05/11 01:53:16;;;;;;;;;;;;;;;11.35;100.00;101480.16;5028416;27;20304;-46
2023/05/11 01:55:42;;;;;;;;;;;;;;;11.35;100.00;101482.72;5021525;28;19962;-46
2023/05/11 01:58:09;;;;;;;;;;;;;;;11.34;100.00;101483.50;5024240;28;19921;-47
2023/05/11 02:00:35;;;;;;;;;;;;;;;11.34;100.00;101475.78;5025275;28;19923;-48
2023/05/11 02:03:02;;;;;;;;;;;;;;;11.33;100.00;101477.50;5020243;28;20016;-49
2023/05/11 02:05:28;;;;;;;;;;;;;;;11.32;100.00;101474.88;5023795;28;19973;-50
2023/05/11 02:07:54;;;;;;;;;;;;;;;11.32;100.00;101474.88;5026251;27;19925;-48
2023/05/11 02:10:21;;;;;;;;;;;;;;;11.30;100.00;101484.25;5021487;28;20264;-47
2023/05/11 02:12:51;;;;;;;;;;;;;;;11.28;100.00;101476.44;5017079;28;19925;-49
2023/05/11 02:15:18;;;;;;;;;;;;;;;11.26;100.00;101473.81;5023623;28;19970;-47
2023/05/11 02:17:43;;;;;;;;;;;;;;;11.25;100.00;101474.66;5020232;28;19924;-49
2023/05/11 02:20:09;;;;;;;;;;;;;;;11.24;100.00;101472.91;5023112;28;19917;-46
2023/05/11 02:22:35;;;;;;;;;;;;;;;11.22;100.00;101472.00;5024735;28;19924;-47
2023/05/11 02:25:01;;;;;;;;;;;;;;;11.22;100.00;101476.22;5029366;27;20392;-48
2023/05/11 02:27:26;;;;;;;;;;;;;;;11.20;100.00;101478.75;5023739;28;19921;-46
2023/05/11 02:29:52;;;;;;;;;;;;;;;11.19;100.00;101476.16;5020363;28;19979;-46
2023/05/11 02:32:19;;;;;;;;;;;;;;;11.18;100.00;101471.81;5022408;28;19921;-47
2023/05/11 02:34:48;;;;;;;;;;;;;;;11.15;100.00;101463.97;5019451;28;20440;-45
2023/05/11 02:37:17;;;;;;;;;;;;;;;11.12;100.00;101466.47;5019829;28;20379;-46
2023/05/11 02:39:43;;;;;;;;;;;;;;;11.06;100.00;101468.81;5020461;28;19924;-49
2023/05/11 02:42:14;;;;;;;;;;;;;;;10.98;100.00;101471.09;5035219;27;20338;-47
2023/05/11 02:44:41;;;;;;;;;;;;;;;10.91;100.00;101461.41;5023040;28;19928;-47
2023/05/11 02:47:11;;;;;;;;;;;;;;;10.87;100.00;101462.13;5021298;28;19917;-49
2023/05/11 02:49:37;;;;;;;;;;;;;;;10.83;100.00;101470.56;5019619;28;19925;-48
2023/05/11 02:52:02;;;;;;;;;;;;;;;10.74;100.00;101463.38;5021327;28;19917;-45
2023/05/11 02:54:30;;;;;;;;;;;;;;;10.68;100.00;101461.47;5022460;28;20394;-49
2023/05/11 02:56:56;;;;;;;;;;;;;;;10.64;100.00;101464.72;5016901;28;19917;-47
2023/05/11 02:59:22;;;;;;;;;;;;;;;10.59;100.00;101462.81;5027336;27;20405;-46
2023/05/11 03:01:48;;;;;;;;;;;;;;;10.54;100.00;101466.88;5022591;28;19929;-46
2023/05/11 03:04:13;;;;;;;;;;;;;;;10.48;100.00;101470.97;5026072;28;19972;-49
2023/05/11 03:06:39;;;;;;;;;;;;;;;10.41;100.00;101471.56;5020765;28;20533;-47
2023/05/11 03:09:05;;;;;;;;;;;;;;;10.34;100.00;101471.28;5023056;28;19933;-48
2023/05/11 03:11:30;;;;;;;;;;;;;;;10.29;100.00;101472.78;5019897;28;20389;-47
2023/05/11 03:13:56;;;;;;;;;;;;;;;10.24;100.00;101471.72;5024189;28;20387;-45
2023/05/11 03:16:21;;;;;;;;;;;;;;;10.19;100.00;101468.94;5025419;28;19922;-46
2023/05/11 03:18:47;;;;;;;;;;;;;;;10.15;100.00;101467.97;5021601;28;20004;-46
2023/05/11 03:21:15;;;;;;;;;;;;;;;10.11;100.00;101466.06;5021740;28;20004;-48
2023/05/11 03:23:40;;;;;;;;;;;;;;;10.13;100.00;101476.41;5020395;28;19925;-48
2023/05/11 03:26:06;;;;;;;;;;;;;;;10.12;100.00;101478.09;5028616;28;19921;-45
2023/05/11 03:28:32;;;;;;;;;;;;;;;10.11;100.00;101476.34;5023647;28;19932;-50
2023/05/11 03:30:57;;;;;;;;;;;;;;;10.11;100.00;101476.34;5018745;28;20303;-47
2023/05/11 03:33:22;;;;;;;;;;;;;;;10.16;100.00;101473.97;5038267;28;19925;-46
2023/05/11 03:35:48;;;;;;;;;;;;;;;10.20;100.00;101471.59;5019161;28;19921;-46
2023/05/11 03:38:15;;;;;;;;;;;;;;;10.26;100.00;101477.81;5019280;28;19922;-49
2023/05/11 03:40:41;;;;;;;;;;;;;;;10.30;100.00;101479.69;5019109;28;20419;-49
2023/05/11 03:43:07;;;;;;;;;;;;;;;10.33;100.00;101469.53;5027592;27;19970;-48
2023/05/11 03:45:33;;;;;;;;;;;;;;;10.35;100.00;101466.19;5024189;27;19948;-46
2023/05/11 03:47:59;;;;;;;;;;;;;;;10.35;100.00;101471.34;5021170;28;19940;-47
2023/05/11 03:50:26;;;;;;;;;;;;;;;10.36;100.00;101472.22;5020022;28;19944;-47
2023/05/11 03:52:51;;;;;;;;;;;;;;;10.36;100.00;101477.34;5022286;28;19974;-47
2023/05/11 03:55:16;;;;;;;;;;;;;;;10.37;100.00;101479.09;5024937;28;19928;-47
2023/05/11 03:57:42;;;;;;;;;;;;;;;10.39;100.00;101473.22;5022489;28;19940;-48
2023/05/11 04:00:09;;;;;;;;;;;;;;;10.41;100.00;101468.13;5025304;28;19970;-48
2023/05/11 04:02:34;;;;;;;;;;;;;;;10.42;100.00;101468.16;5022880;28;20020;-48
2023/05/11 04:04:59;;;;;;;;;;;;;;;10.44;100.00;101473.41;5015746;28;20345;-48
2023/05/11 04:07:25;;;;;;;;;;;;;;;10.46;100.00;101475.19;5017132;28;19917;-49
2023/05/11 04:09:50;;;;;;;;;;;;;;;10.48;100.00;101475.25;5020019;28;19932;-46
2023/05/11 04:12:15;;;;;;;;;;;;;;;10.51;100.00;101477.94;5019991;28;19974;-46
2023/05/11 04:14:41;;;;;;;;;;;;;;;10.53;100.00;101478.88;5027392;28;19921;-48
2023/05/11 04:17:06;;;;;;;;;;;;;;;10.57;100.00;101479.88;5020667;28;20300;-45
2023/05/11 04:19:31;;;;;;;;;;;;;;;10.58;100.00;101479.94;5009083;28;19924;-46
2023/05/11 04:21:56;;;;;;;;;;;;;;;10.59;100.00;101476.53;5020732;28;19956;-47
2023/05/11 04:24:22;;;;;;;;;;;;;;;10.63;100.00;101473.28;5022053;28;19953;-51
2023/05/11 04:26:47;;;;;;;;;;;;;;;10.65;100.00;101475.88;5021977;28;19925;-48
2023/05/11 04:29:12;;;;;;;;;;;;;;;10.68;100.00;101479.47;5023639;28;19974;-51
2023/05/11 04:31:37;;;;;;;;;;;;;;;10.71;100.00;101473.53;5011534;28;19964;-49
2023/05/11 04:34:05;;;;;;;;;;;;;;;10.72;100.00;101480.44;5020398;28;19921;-52
2023/05/11 04:36:31;;;;;;;;;;;;;;;10.74;100.00;101479.69;5018892;28;19921;-50
2023/05/11 04:38:57;;;;;;;;;;;;;;;10.78;100.00;101487.50;5023468;28;20291;-49
2023/05/11 04:41:22;;;;;;;;;;;;;;;10.79;100.00;101484.09;5030027;28;19925;-48
2023/05/11 04:43:48;;;;;;;;;;;;;;;10.83;100.00;101485.97;5031103;28;19924;-51
2023/05/11 04:46:14;;;;;;;;;;;;;;;10.86;100.00;101484.41;5020118;28;20295;-50
2023/05/11 04:48:39;;;;;;;;;;;;;;;10.91;100.00;101480.28;5019619;28;19925;-47
2023/05/11 04:51:05;;;;;;;;;;;;;;;10.98;100.00;101481.38;5017007;28;19921;-53
2023/05/11 04:53:30;;;;;;;;;;;;;;;11.02;100.00;101481.56;5020443;28;19917;-51
2023/05/11 04:55:56;;;;;;;;;;;;;;;11.08;100.00;101488.63;5020882;28;19924;-52
2023/05/11 04:58:21;;;;;;;;;;;;;;;11.13;100.00;101483.66;5019847;28;20016;-51
2023/05/11 05:00:46;;;;;;;;;;;;;;;11.15;100.00;101492.28;5023398;28;20032;-51
2023/05/11 05:03:12;;;;;;;;;;;;;;;11.18;100.00;101495.00;5019291;28;19940;-49
2023/05/11 05:05:37;;;;;;;;;;;;;;;11.20;100.00;101501.94;5013758;28;19931;-51
2023/05/11 05:08:02;;;;;;;;;;;;;;;11.25;100.00;101502.09;5018746;28;20376;-50
2023/05/11 05:10:27;;;;;;;;;;;;;;;11.29;100.00;101509.13;5018713;28;20352;-51
2023/05/11 05:12:53;;;;;;;;;;;;;;;11.33;100.00;101504.94;5023975;28;19921;-50
2023/05/11 05:15:18;;;;;;;;;;;;;;;11.37;100.00;101509.38;5038370;27;19938;-48
2023/05/11 05:17:43;;;;;;;;;;;;;;;11.41;100.00;101506.97;5023546;28;20019;-49
2023/05/11 05:20:09;;;;;;;;;;;;;;;11.43;100.00;101513.03;5022611;28;20359;-50
2023/05/11 05:22:34;;;;;;;;;;;;;;;11.45;100.00;101513.09;5021153;28;19921;-49
2023/05/11 05:24:59;;;;;;;;;;;;;;;11.48;100.00;101508.06;5023074;28;20008;-50
2023/05/11 05:27:25;;;;;;;;;;;;;;;11.53;100.00;101514.25;5035077;28;19921;-52
2023/05/11 05:29:50;;;;;;;;;;;;;;;11.54;100.00;101516.00;5022500;28;20494;-50
2023/05/11 05:32:15;;;;;;;;;;;;;;;11.52;100.00;101512.47;5029009;27;19929;-48
2023/05/11 05:34:41;;;;;;;;;;;;;;;11.57;100.00;101523.81;5021899;28;19966;-49
2023/05/11 05:37:06;;;;;;;;;;;;;;;11.62;100.00;101522.28;5022843;28;20295;-49
2023/05/11 05:39:31;;;;;;;;;;;;;;;11.68;100.00;101525.06;5009392;28;19921;-49
2023/05/11 05:41:56;;;;;;;;;;;;;;;11.72;100.00;101526.94;5021528;28;20360;-50
2023/05/11 05:44:21;;;;;;;;;;;;;;;11.76;100.00;101525.31;5026192;28;19917;-48
2023/05/11 05:46:47;;;;;;;;;;;;;;;11.78;100.00;101528.84;5020433;28;20465;-52
2023/05/11 05:49:12;;;;;;;;;;;;;;;11.79;100.00;101528.00;5025891;27;20291;-54
2023/05/11 05:51:37;;;;;;;;;;;;;;;11.79;100.00;101539.19;5017019;28;19925;-52
2023/05/11 05:54:03;;;;;;;;;;;;;;;11.76;100.00;101538.19;5025662;28;19921;-50
2023/05/11 05:56:28;;;;;;;;;;;;;;;11.72;100.00;101538.94;5025708;28;20303;-51
2023/05/11 05:58:53;;;;;;;;;;;;;;;11.68;100.00;101539.66;5023860;28;19921;-49
2023/05/11 06:01:18;;;;;;;;;;;;;;;11.69;100.00;101542.28;5020007;28;20379;-51
2023/05/11 06:03:44;;;;;;;;;;;;;;;11.76;100.00;101544.22;5024100;28;19978;-49
2023/05/11 06:06:10;;;;;;;;;;;;;;;11.79;100.00;101549.50;5022823;27;19936;-50
2023/05/11 06:08:35;;;;;;;;;;;;;;;11.81;100.00;101547.88;5024106;28;19925;-51
2023/05/11 06:11:01;;;;;;;;;;;;;;;11.84;100.00;101544.53;5023577;28;19956;-51
2023/05/11 06:13:26;;;;;;;;;;;;;;;11.88;100.00;101543.78;5019763;28;19937;-51
2023/05/11 06:15:51;;;;;;;;;;;;;;;11.91;100.00;101546.50;5022983;28;19929;-48
2023/05/11 06:18:16;;;;;;;;;;;;;;;11.95;100.00;101550.94;5021439;28;19921;-48
2023/05/11 06:20:42;;;;;;;;;;;;;;;11.99;100.00;101551.91;5023173;28;19928;-51
2023/05/11 06:23:07;;;;;;;;;;;;;;;12.03;100.00;101552.06;5029397;27;20579;-51
2023/05/11 06:25:33;;;;;;;;;;;;;;;12.04;100.00;101550.34;5022452;28;20435;-50
2023/05/11 06:27:59;;;;;;;;;;;;;;;12.08;100.00;101554.78;5023237;28;19925;-48
2023/05/11 06:30:24;;;;;;;;;;;;;;;12.10;100.00;101555.72;5023864;28;19925;-49
2023/05/11 06:32:49;;;;;;;;;;;;;;;12.15;100.00;101553.28;5023073;28;19953;-52
2023/05/11 06:35:15;;;;;;;;;;;;;;;12.16;100.00;101550.75;5023634;28;19960;-48
2023/05/11 06:37:40;;;;;;;;;;;;;;;12.25;100.00;101553.59;5021027;28;19970;-50
2023/05/11 06:40:06;;;;;;;;;;;;;;;12.28;100.00;101550.28;5027016;27;20029;-49
2023/05/11 06:42:31;;;;;;;;;;;;;;;12.34;100.00;101555.63;5019420;28;19922;-49
2023/05/11 06:44:57;;;;;;;;;;;;;;;12.41;100.00;101556.69;5022153;28;20444;-50
2023/05/11 06:47:22;;;;;;;;;;;;;;;12.53;100.00;101560.53;5034464;27;19944;-49
2023/05/11 06:49:47;;;;;;;;;;;;;;;12.60;100.00;101552.13;5029679;27;19974;-53
2023/05/11 06:52:13;;;;;;;;;;;;;;;12.64;100.00;101558.28;5018827;28;20114;-50
2023/05/11 06:54:38;;;;;;;;;;;;;;;12.64;100.00;101560.88;5017748;28;20384;-51
2023/05/11 06:57:03;;;;;;;;;;;;;;;12.67;100.00;101560.94;5025140;27;19965;-50
2023/05/11 06:59:29;;;;;;;;;;;;;;;12.67;100.00;101565.22;5018787;28;19929;-49
2023/05/11 07:01:54;;;;;;;;;;;;;;;12.66;100.00;101564.34;5020175;28;19977;-52
2023/05/11 07:04:20;;;;;;;;;;;;;;;12.68;100.00;101574.72;5019896;28;19928;-50
2023/05/11 07:06:45;;;;;;;;;;;;;;;12.73;100.00;101568.00;5039489;28;20327;-51
2023/05/11 07:09:10;;;;;;;;;;;;;;;12.75;100.00;101563.78;5030669;28;19931;-50
2023/05/11 07:11:36;;;;;;;;;;;;;;;12.76;100.00;101566.41;5026323;28;19990;-50
2023/05/11 07:14:02;;;;;;;;;;;;;;;12.75;100.00;101564.66;5025644;27;19919;-51
2023/05/11 07:16:27;;;;;;;;;;;;;;;12.77;100.00;101573.31;5023126;27;19921;-51
2023/05/11 07:18:52;;;;;;;;;;;;;;;12.80;100.00;101570.84;5014748;28;19974;-49
2023/05/11 07:21:18;;;;;;;;;;;;;;;12.82;100.00;101576.03;5020642;27;20357;-49
2023/05/11 07:23:43;;;;;;;;;;;;;;;12.82;100.00;101574.31;5016510;28;19981;-49
2023/05/11 07:26:08;;;;;;;;;;;;;;;12.82;100.00;101568.28;5019541;28;19931;-49
2023/05/11 07:28:37;;;;;;;;;;;;;;;12.76;100.00;101574.13;5018566;28;19936;-48
2023/05/11 07:31:02;;;;;;;;;;;;;;;12.72;100.00;101576.56;5022796;28;20389;-49
2023/05/11 07:33:27;;;;;;;;;;;;;;;12.69;100.00;101577.38;5046390;28;20012;-49
2023/05/11 07:35:53;;;;;;;;;;;;;;;12.62;100.00;101580.59;5018295;28;19925;-49
2023/05/11 07:38:18;;;;;;;;;;;;;;;12.55;100.00;101578.63;5103640;27;20371;-49
2023/05/11 07:40:43;;;;;;;;;;;;;;;12.52;100.00;101592.31;5016967;28;19921;-49
2023/05/11 07:43:08;;;;;;;;;;;;;;;12.51;100.00;101587.13;5016965;28;19937;-49
2023/05/11 07:45:34;;;;;;;;;;;;;;;12.45;100.00;101587.78;5019555;28;19922;-49
2023/05/11 07:47:59;;;;;;;;;;;;;;;12.46;100.00;101591.25;5021150;28;20005;-47
2023/05/11 07:50:24;;;;;;;;;;;;;;;12.42;100.00;101584.22;5030162;28;20383;-50
2023/05/11 07:52:49;;;;;;;;;;;;;;;12.43;100.00;101584.28;5025200;28;19917;-48
2023/05/11 07:55:15;;;;;;;;;;;;;;;12.45;100.00;101586.91;5048728;28;20624;-46
2023/05/11 07:57:40;;;;;;;;;;;;;;;12.47;100.00;101585.25;5026057;28;19960;-47
2023/05/11 08:00:06;;;;;;;;;;;;;;;12.42;100.00;101581.66;5025488;28;19925;-48
2023/05/11 08:02:32;;;;;;;;;;;;;;;12.46;100.00;101591.25;5026486;28;20397;-48
2023/05/11 08:04:57;;;;;;;;;;;;;;;12.49;100.00;101588.75;5025140;28;19921;-48
2023/05/11 08:07:22;;;;;;;;;;;;;;;12.52;100.00;101594.91;5025867;28;20020;-47
2023/05/11 08:09:47;;;;;;;;;;;;;;;12.55;100.00;101599.25;5031053;28;20409;-48
2023/05/11 08:12:13;;;;;;;;;;;;;;;12.56;100.00;101595.88;5054621;28;20016;-49
2023/05/11 08:14:38;;;;;;;;;;;;;;;12.51;100.00;101593.16;5043629;28;20015;-48
2023/05/11 08:17:04;;;;;;;;;;;;;;;12.51;100.00;101600.00;5045261;28;20320;-50
2023/05/11 08:19:29;;;;;;;;;;;;;;;12.54;100.00;101589.78;5025368;28;19918;-51
2023/05/11 08:21:55;;;;;;;;;;;;;;;12.57;100.00;101597.63;5031034;28;19920;-51
2023/05/11 08:24:20;;;;;;;;;;;;;;;12.61;100.00;101597.75;5024198;28;20387;-51
2023/05/11 08:26:46;;;;;;;;;;;;;;;12.67;100.00;101601.34;5018695;28;19921;-52
2023/05/11 08:29:11;;;;;;;;;;;;;;;12.72;100.00;101598.09;5022930;28;20329;-52
2023/05/11 08:31:36;;;;;;;;;;;;;;;12.76;100.00;101602.53;5029870;28;20293;-51
2023/05/11 08:34:02;;;;;;;;;;;;;;;12.79;100.00;101597.44;5025778;28;19917;-49
2023/05/11 08:36:27;;;;;;;;;;;;;;;12.77;100.00;101603.41;5033365;28;19932;-52
2023/05/11 08:38:52;;;;;;;;;;;;;;;12.67;100.00;101601.34;5028465;28;19921;-52
2023/05/11 08:41:18;;;;;;;;;;;;;;;12.59;100.00;101601.13;5027985;28;19925;-49
2023/05/11 08:43:44;;;;;;;;;;;;;;;12.55;100.00;101601.84;5028557;28;19921;-48
2023/05/11 08:46:10;;;;;;;;;;;;;;;12.49;100.00;101597.38;5029249;28;19917;-52
2023/05/11 08:48:35;;;;;;;;;;;;;;;12.52;100.00;101604.34;5033147;28;20401;-51
2023/05/11 08:51:03;;;;;;;;;;;;;;;12.45;100.00;101598.13;5028835;28;19918;-51
2023/05/11 08:53:28;;;;;;;;;;;;;;;12.44;100.00;101598.94;5027000;28;19925;-49
2023/05/11 08:55:56;;;;;;;;;;;;;;;12.44;100.00;101598.94;5032119;27;19917;-52
2023/05/11 08:58:22;;;;;;;;;;;;;;;12.48;100.00;101594.75;5030507;27;19921;-50
2023/05/11 09:00:47;;;;;;;;;;;;;;;12.57;100.00;101600.22;5025925;27;19929;-52
2023/05/11 09:03:13;;;;;;;;;;;;;;;12.64;100.00;101598.69;5024113;28;19943;-52
2023/05/11 09:05:38;;;;;;;;;;;;;;;12.72;100.00;101602.38;5025800;28;19929;-52
2023/05/11 09:08:04;;;;;;;;;;;;;;;12.74;100.00;101605.88;5020219;28;19922;-51
2023/05/11 09:10:31;;;;;;;;;;;;;;;12.79;100.00;101609.47;5038593;28;19917;-51
2023/05/11 09:12:56;;;;;;;;;;;;;;;12.86;100.00;101604.56;5027466;27;19919;-52
2023/05/11 09:15:21;;;;;;;;;;;;;;;12.99;100.00;101615.28;5029615;27;19919;-52
2023/05/11 09:17:47;;;;;;;;;;;;;;;13.03;100.00;101610.22;5026006;28;19913;-52
2023/05/11 09:20:12;;;;;;;;;;;;;;;13.06;100.00;101612.91;5026648;28;19928;-51
2023/05/11 09:22:42;;;;;;;;;;;;;;;13.08;100.00;101615.53;5023232;28;19925;-51
2023/05/11 09:25:09;;;;;;;;;;;;;;;13.09;100.00;101609.53;5025432;28;19929;-52
2023/05/11 09:27:39;;;;;;;;;;;;;;;13.15;100.00;101614.88;5024654;27;19943;-48
2023/05/11 09:30:11;;;;;;;;;;;;;;;13.22;100.00;101613.38;5051178;27;20577;-51
2023/05/11 09:33:06;;;;;;;;;;;;;;;13.37;100.00;101617.28;5033143;27;19928;-51
2023/05/11 09:35:34;;;;;;;;;;;;;;;13.63;100.00;101611.97;5017756;27;19924;-49
2023/05/11 09:37:59;;;;;;;;;;;;;;;13.85;100.00;101606.56;5040431;27;19917;-52
2023/05/11 09:40:25;;;;;;;;;;;;;;;14.08;100.00;101606.28;5028898;27;19944;-48
2023/05/11 09:42:50;;;;;;;;;;;;;;;14.31;100.00;101601.66;5027852;28;19917;-52
2023/05/11 09:45:35;;;;;;;;;;;;;;;14.59;100.00;101595.47;5023745;28;19928;-51
2023/05/11 09:48:01;;;;;;;;;;;;;;;14.90;100.00;101597.91;5027789;28;19967;-48
2023/05/11 09:50:30;;;;;;;;;;;;;;;15.11;100.00;101607.88;5027604;28;20372;-51
2023/05/11 09:52:56;;;;;;;;;;;;;;;15.17;100.00;101605.41;5022947;28;20039;-50
2023/05/11 09:55:21;;;;;;;;;;;;;;;15.24;100.00;101602.13;5020746;28;19966;-49
2023/05/11 09:57:51;;;;;;;;;;;;;;;15.34;100.00;101595.38;5023819;28;19921;-47
2023/05/11 10:00:17;;;;;;;;;;;;;;;15.44;100.00;101599.91;5023494;28;19978;-51
2023/05/11 10:02:42;;;;;;;;;;;;;;;15.51;100.00;101606.09;5026815;28;20521;-51
2023/05/11 10:05:12;;;;;;;;;;;;;;;15.58;100.00;101600.16;5027273;28;19948;-47
2023/05/11 10:07:38;;;;;;;;;;;;;;;15.71;100.00;101606.50;5022237;28;19917;-49
2023/05/11 10:10:07;;;;;;;;;;;;;;;15.75;100.00;101604.00;5046045;27;20431;-50
2023/05/11 10:12:33;;;;;;;;;;;;;;;15.91;100.00;101602.56;5044300;27;20004;-50
2023/05/11 10:14:58;;;;;;;;;;;;;;;15.94;100.00;101594.81;5031783;28;19925;-47
2023/05/11 10:17:24;;;;;;;;;;;;;;;16.14;100.00;101600.38;5040336;27;19966;-49
2023/05/11 10:19:50;;;;;;;;;;;;;;;16.37;100.00;101603.34;5027511;28;19921;-46
2023/05/11 10:22:18;;;;;;;;;;;;;;;16.44;100.00;101596.50;5027342;27;19973;-47
2023/05/11 10:24:43;;;;;;;;;;;;;;;16.50;100.00;101607.91;5024092;28;20375;-47
2023/05/11 10:27:09;;;;;;;;;;;;;;;16.39;100.00;101606.84;5026386;28;19981;-46
2023/05/11 10:29:36;;;;;;;;;;;;;;;16.28;100.00;101610.97;5034315;28;19970;-48
2023/05/11 10:32:01;;;;;;;;;;;;;;;16.22;100.00;101610.88;5026546;28;19921;-46
2023/05/11 10:34:27;;;;;;;;;;;;;;;16.11;100.00;101607.22;5025226;28;19917;-47
2023/05/11 10:36:53;;;;;;;;;;;;;;;16.08;100.00;101605.47;5026478;28;19917;-49
2023/05/11 10:39:18;;;;;;;;;;;;;;;16.03;100.00;101610.56;5033398;27;19932;-48
2023/05/11 10:41:43;;;;;;;;;;;;;;;16.03;100.00;101612.28;5038127;27;19924;-48
2023/05/11 10:44:20;;;;;;;;;;;;;;;16.00;100.00;101613.09;5037433;27;19917;-47
2023/05/11 10:47:04;;;;;;;;;;;;;;;16.02;100.00;101614.00;5036881;27;20299;-48
2023/05/11 10:49:38;;;;;;;;;;;;;;;16.05;100.00;101615.78;5027603;28;19921;-47
2023/05/11 10:52:22;;;;;;;;;;;;;;;16.07;100.00;101607.16;5038378;28;19925;-47
2023/05/11 10:55:06;;;;;;;;;;;;;;;15.99;100.00;101608.75;5036918;27;19932;-50
2023/05/11 10:57:31;;;;;;;;;;;;;;;16.05;100.00;101608.88;5030311;27;19928;-51
2023/05/11 11:00:12;;;;;;;;;;;;;;;16.16;100.00;101608.19;5030654;27;20668;-51
2023/05/11 11:02:38;;;;;;;;;;;;;;;16.32;100.00;101613.66;5037776;28;19930;-49
2023/05/11 11:05:12;;;;;;;;;;;;;;;16.48;100.00;101612.16;5036552;27;20448;-51
2023/05/11 11:08:02;;;;;;;;;;;;;;;16.43;99.91;101606.03;5034627;27;19925;-48
2023/05/11 11:10:38;;;;;;;;;;;;;;;16.51;99.63;101601.84;5029949;27;19925;-48
2023/05/11 11:13:03;;;;;;;;;;;;;;;16.53;100.00;101602.75;5037927;27;19924;-50
2023/05/11 11:15:48;;;;;;;;;;;;;;;16.62;100.00;101602.00;5036255;27;19920;-51
2023/05/11 11:18:21;;;;;;;;;;;;;;;16.78;100.00;101603.13;5027903;27;19921;-45
2023/05/11 11:20:47;;;;;;;;;;;;;;;16.98;100.00;101593.88;5022073;28;19956;-48
2023/05/11 11:23:31;;;;;;;;;;;;;;;17.30;100.00;101593.44;5027012;28;19932;-48
2023/05/11 11:25:56;;;;;;;;;;;;;;;17.55;95.79;101595.47;5025853;28;19921;-47
2023/05/11 11:28:22;;;;;;;;;;;;;;;17.66;97.76;101590.38;5026338;28;19917;-50
2023/05/11 11:30:47;;;;;;;;;;;;;;;17.74;97.65;101590.50;5026259;27;19917;-47
2023/05/11 11:33:12;;;;;;;;;;;;;;;17.72;96.51;101589.63;5026654;28;19958;-50
2023/05/11 11:35:38;;;;;;;;;;;;;;;17.71;94.96;101591.28;5026233;28;20398;-50
2023/05/11 11:38:03;;;;;;;;;;;;;;;17.78;97.51;101587.94;5028167;28;19924;-47
2023/05/11 11:40:35;;;;;;;;;;;;;;;17.73;95.31;101576.63;5024349;28;20381;-49
2023/05/11 11:43:11;;;;;;;;;;;;;;;17.86;96.34;101575.88;5025473;28;20383;-47
2023/05/11 11:45:37;;;;;;;;;;;;;;;17.95;86.65;101572.47;5026998;28;20291;-51
2023/05/11 11:48:06;;;;;;;;;;;;;;;17.98;93.92;101569.03;5027517;28;19964;-49
2023/05/11 11:50:32;;;;;;;;;;;;;;;18.06;93.60;101576.03;5023227;28;19917;-45
2023/05/11 11:52:58;;;;;;;;;;;;;;;18.07;92.35;101575.19;5025261;28;19921;-51
2023/05/11 11:55:42;;;;;;;;;;;;;;;18.02;87.10;101571.69;5025954;28;19921;-49
2023/05/11 11:58:07;;;;;;;;;;;;;;;17.78;91.05;101576.66;5021716;28;20009;-51
2023/05/11 12:00:33;;;;;;;;;;;;;;;17.69;92.26;101573.06;5020317;28;20012;-48
2023/05/11 12:02:59;;;;;;;;;;;;;;;17.79;93.96;101578.41;5025021;28;20133;-51
2023/05/11 12:05:25;;;;;;;;;;;;;;;17.91;94.04;101575.91;5022707;28;19956;-49
2023/05/11 12:07:51;;;;;;;;;;;;;;;18.00;96.09;101569.91;5019481;28;20235;-48
2023/05/11 12:10:17;;;;;;;;;;;;;;;18.05;86.93;101576.03;5044671;28;19921;-48
2023/05/11 12:12:50;;;;;;;;;;;;;;;18.01;86.84;101585.53;5028880;28;19921;-50
2023/05/11 12:15:25;;;;;;;;;;;;;;;17.90;92.75;101588.06;5031045;28;19917;-47
2023/05/11 12:17:51;;;;;;;;;;;;;;;17.87;93.96;101587.16;5030472;28;19918;-50
2023/05/11 12:20:17;;;;;;;;;;;;;;;17.89;84.37;101582.81;5033174;27;19920;-49
2023/05/11 12:22:47;;;;;;;;;;;;;;;17.86;90.43;101577.59;5024149;28;19942;-51
2023/05/11 12:25:14;;;;;;;;;;;;;;;17.84;92.71;101576.72;5023682;28;19918;-50